sensor_id;sensor_type;location;lat;lon;timestamp;temperature;humidity
54082;DHT22;39986;50.770;0.266;2023-02-01T00:01:23;5.80;99.90
54082;DHT22;39986;50.770;0.266;2023-02-01T00:03:49;5.70;99.90
54082;DHT22;39986;50.770;0.266;2023-02-01T00:06:40;5.70;99.90
54082;DHT22;39986;50.770;0.266;2023-02-01T00:09:07;5.70;99.90
54082;DHT22;39986;50.770;0.266;2023-02-01T00:11:33;5.70;99.90
54082;DHT22;39986;50.770;0.266;2023-02-01T00:13:59;5.80;99.90
54082;DHT22;39986;50.770;0.266;2023-02-01T00:16:25;5.70;99.90
54082;DHT22;39986;50.770;0.266;2023-02-01T00:18:52;5.80;99.90
54082;DHT22;39986;50.770;0.266;2023-02-01T00:21:21;5.80;99.90
54082;DHT22;39986;50.770;0.266;2023-02-01T00:23:46;5.80;99.90
54082;DHT22;39986;50.770;0.266;2023-02-01T00:26:16;5.70;99.90
54082;DHT22;39986;50.770;0.266;2023-02-01T00:28:42;5.80;99.90
54082;DHT22;39986;50.770;0.266;2023-02-01T00:31:07;5.80;99.90
54082;DHT22;39986;50.770;0.266;2023-02-01T00:33:33;5.80;99.90
54082;DHT22;39986;50.770;0.266;2023-02-01T00:35:59;5.80;99.90
54082;DHT22;39986;50.770;0.266;2023-02-01T00:38:25;5.80;99.90
54082;DHT22;39986;50.770;0.266;2023-02-01T00:40:51;5.80;99.90
54082;DHT22;39986;50.770;0.266;2023-02-01T00:43:17;5.80;99.90
54082;DHT22;39986;50.770;0.266;2023-02-01T00:45:44;5.80;99.90
54082;DHT22;39986;50.770;0.266;2023-02-01T00:48:10;5.70;99.90
54082;DHT22;39986;50.770;0.266;2023-02-01T00:50:40;5.80;99.90
54082;DHT22;39986;50.770;0.266;2023-02-01T00:53:06;5.80;99.90
54082;DHT22;39986;50.770;0.266;2023-02-01T00:55:31;5.80;99.90
54082;DHT22;39986;50.770;0.266;2023-02-01T00:57:57;5.70;99.90
54082;DHT22;39986;50.770;0.266;2023-02-01T01:00:22;5.70;99.90
54082;DHT22;39986;50.770;0.266;2023-02-01T01:02:48;5.80;99.90
54082;DHT22;39986;50.770;0.266;2023-02-01T01:05:14;5.70;99.90
54082;DHT22;39986;50.770;0.266;2023-02-01T01:07:39;5.70;99.90
54082;DHT22;39986;50.770;0.266;2023-02-01T01:10:06;5.80;99.90
54082;DHT22;39986;50.770;0.266;2023-02-01T01:12:32;5.70;99.90
54082;DHT22;39986;50.770;0.266;2023-02-01T01:14:58;5.70;99.90
54082;DHT22;39986;50.770;0.266;2023-02-01T01:17:23;5.60;99.90
54082;DHT22;39986;50.770;0.266;2023-02-01T01:19:49;5.60;99.90
54082;DHT22;39986;50.770;0.266;2023-02-01T01:22:14;5.60;99.90
54082;DHT22;39986;50.770;0.266;2023-02-01T01:24:40;5.60;99.90
54082;DHT22;39986;50.770;0.266;2023-02-01T01:27:05;5.60;99.90
54082;DHT22;39986;50.770;0.266;2023-02-01T01:29:31;5.60;99.90
54082;DHT22;39986;50.770;0.266;2023-02-01T01:31:56;5.50;99.90
54082;DHT22;39986;50.770;0.266;2023-02-01T01:34:22;5.50;99.90
54082;DHT22;39986;50.770;0.266;2023-02-01T01:36:47;5.50;99.90
54082;DHT22;39986;50.770;0.266;2023-02-01T01:39:13;5.50;99.90
54082;DHT22;39986;50.770;0.266;2023-02-01T01:41:38;5.50;99.90
54082;DHT22;39986;50.770;0.266;2023-02-01T01:44:05;5.50;99.90
54082;DHT22;39986;50.770;0.266;2023-02-01T01:49:01;5.40;99.90
54082;DHT22;39986;50.770;0.266;2023-02-01T01:51:28;5.50;99.90
54082;DHT22;39986;50.770;0.266;2023-02-01T01:54:02;5.40;99.90
54082;DHT22;39986;50.770;0.266;2023-02-01T01:56:30;5.40;99.90
54082;DHT22;39986;50.770;0.266;2023-02-01T01:58:57;5.50;99.90
54082;DHT22;39986;50.770;0.266;2023-02-01T02:01:23;5.40;99.90
54082;DHT22;39986;50.770;0.266;2023-02-01T02:03:49;5.50;99.90
54082;DHT22;39986;50.770;0.266;2023-02-01T02:08:50;5.40;99.90
54082;DHT22;39986;50.770;0.266;2023-02-01T02:11:16;5.40;99.90
54082;DHT22;39986;50.770;0.266;2023-02-01T02:13:42;5.40;99.90
54082;DHT22;39986;50.770;0.266;2023-02-01T02:16:12;5.40;99.90
54082;DHT22;39986;50.770;0.266;2023-02-01T02:21:12;5.30;99.90
54082;DHT22;39986;50.770;0.266;2023-02-01T02:31:25;5.20;99.90
54082;DHT22;39986;50.770;0.266;2023-02-01T02:34:01;5.30;99.90
54082;DHT22;39986;50.770;0.266;2023-02-01T02:44:27;5.20;99.90
54082;DHT22;39986;50.770;0.266;2023-02-01T02:47:26;5.10;99.90
54082;DHT22;39986;50.770;0.266;2023-02-01T02:49:56;5.10;99.90
54082;DHT22;39986;50.770;0.266;2023-02-01T02:52:56;5.10;99.90
54082;DHT22;39986;50.770;0.266;2023-02-01T02:55:41;5.20;99.90
54082;DHT22;39986;50.770;0.266;2023-02-01T02:58:07;5.10;99.90
54082;DHT22;39986;50.770;0.266;2023-02-01T03:00:53;5.10;99.90
54082;DHT22;39986;50.770;0.266;2023-02-01T03:03:38;5.10;99.90
54082;DHT22;39986;50.770;0.266;2023-02-01T03:06:24;5.20;99.90
54082;DHT22;39986;50.770;0.266;2023-02-01T03:08:50;5.20;99.90
54082;DHT22;39986;50.770;0.266;2023-02-01T03:11:19;5.20;99.90
54082;DHT22;39986;50.770;0.266;2023-02-01T03:18:50;5.40;99.90
54082;DHT22;39986;50.770;0.266;2023-02-01T03:21:39;5.50;99.90
54082;DHT22;39986;50.770;0.266;2023-02-01T03:24:04;5.40;99.90
54082;DHT22;39986;50.770;0.266;2023-02-01T03:26:33;5.50;99.90
54082;DHT22;39986;50.770;0.266;2023-02-01T03:29:08;5.50;99.90
54082;DHT22;39986;50.770;0.266;2023-02-01T03:31:36;5.50;99.90
54082;DHT22;39986;50.770;0.266;2023-02-01T03:34:01;5.50;99.90
54082;DHT22;39986;50.770;0.266;2023-02-01T03:38:58;5.60;99.90
54082;DHT22;39986;50.770;0.266;2023-02-01T03:41:33;5.60;99.90
54082;DHT22;39986;50.770;0.266;2023-02-01T03:46:37;5.70;99.90
54082;DHT22;39986;50.770;0.266;2023-02-01T03:49:05;5.70;99.90
54082;DHT22;39986;50.770;0.266;2023-02-01T03:51:31;5.70;99.90
54082;DHT22;39986;50.770;0.266;2023-02-01T03:53:58;5.70;99.90
54082;DHT22;39986;50.770;0.266;2023-02-01T03:56:24;5.70;99.90
54082;DHT22;39986;50.770;0.266;2023-02-01T03:58:50;5.80;99.90
54082;DHT22;39986;50.770;0.266;2023-02-01T04:01:28;5.70;99.90
54082;DHT22;39986;50.770;0.266;2023-02-01T04:03:54;5.70;99.90
54082;DHT22;39986;50.770;0.266;2023-02-01T04:06:19;5.70;99.90
54082;DHT22;39986;50.770;0.266;2023-02-01T04:08:45;5.70;99.90
54082;DHT22;39986;50.770;0.266;2023-02-01T04:11:10;5.70;99.90
54082;DHT22;39986;50.770;0.266;2023-02-01T04:13:36;5.70;99.90
54082;DHT22;39986;50.770;0.266;2023-02-01T04:16:01;5.60;99.90
54082;DHT22;39986;50.770;0.266;2023-02-01T04:18:27;5.60;99.90
54082;DHT22;39986;50.770;0.266;2023-02-01T04:20:53;5.60;99.90
54082;DHT22;39986;50.770;0.266;2023-02-01T04:23:19;5.60;99.90
54082;DHT22;39986;50.770;0.266;2023-02-01T04:25:45;5.60;99.90
54082;DHT22;39986;50.770;0.266;2023-02-01T04:28:11;5.60;99.90
54082;DHT22;39986;50.770;0.266;2023-02-01T04:30:37;5.60;99.90
54082;DHT22;39986;50.770;0.266;2023-02-01T04:33:02;5.60;99.90
54082;DHT22;39986;50.770;0.266;2023-02-01T04:35:30;5.60;99.90
54082;DHT22;39986;50.770;0.266;2023-02-01T04:37:56;5.60;99.90
54082;DHT22;39986;50.770;0.266;2023-02-01T04:40:21;6.20;99.90
54082;DHT22;39986;50.770;0.266;2023-02-01T04:42:47;5.60;99.90
54082;DHT22;39986;50.770;0.266;2023-02-01T04:45:12;5.60;99.90
54082;DHT22;39986;50.770;0.266;2023-02-01T04:47:38;5.50;99.90
54082;DHT22;39986;50.770;0.266;2023-02-01T04:50:04;5.50;99.90
54082;DHT22;39986;50.770;0.266;2023-02-01T04:52:31;5.50;99.90
54082;DHT22;39986;50.770;0.266;2023-02-01T04:54:56;5.60;99.90
54082;DHT22;39986;50.770;0.266;2023-02-01T04:57:24;5.50;99.90
54082;DHT22;39986;50.770;0.266;2023-02-01T04:59:50;5.50;99.90
54082;DHT22;39986;50.770;0.266;2023-02-01T05:02:16;5.40;99.90
54082;DHT22;39986;50.770;0.266;2023-02-01T05:04:41;5.40;99.90
54082;DHT22;39986;50.770;0.266;2023-02-01T05:07:07;5.40;99.90
54082;DHT22;39986;50.770;0.266;2023-02-01T05:09:32;5.40;99.90
54082;DHT22;39986;50.770;0.266;2023-02-01T05:11:58;5.40;99.90
54082;DHT22;39986;50.770;0.266;2023-02-01T05:14:42;5.40;99.90
54082;DHT22;39986;50.770;0.266;2023-02-01T05:17:08;5.40;99.90
54082;DHT22;39986;50.770;0.266;2023-02-01T05:19:33;5.30;99.90
54082;DHT22;39986;50.770;0.266;2023-02-01T05:21:59;5.30;99.90
54082;DHT22;39986;50.770;0.266;2023-02-01T05:24:25;5.30;99.90
54082;DHT22;39986;50.770;0.266;2023-02-01T05:26:52;5.30;99.90
54082;DHT22;39986;50.770;0.266;2023-02-01T05:29:18;5.30;99.90
54082;DHT22;39986;50.770;0.266;2023-02-01T05:31:44;5.30;99.90
54082;DHT22;39986;50.770;0.266;2023-02-01T05:34:10;5.30;99.90
54082;DHT22;39986;50.770;0.266;2023-02-01T05:36:36;5.30;99.90
54082;DHT22;39986;50.770;0.266;2023-02-01T05:39:02;5.30;99.90
54082;DHT22;39986;50.770;0.266;2023-02-01T05:41:27;5.30;99.90
54082;DHT22;39986;50.770;0.266;2023-02-01T05:43:53;5.30;99.90
54082;DHT22;39986;50.770;0.266;2023-02-01T05:46:19;5.30;99.90
54082;DHT22;39986;50.770;0.266;2023-02-01T05:48:44;5.30;99.90
54082;DHT22;39986;50.770;0.266;2023-02-01T05:51:10;5.30;99.90
54082;DHT22;39986;50.770;0.266;2023-02-01T05:53:36;5.30;99.90
54082;DHT22;39986;50.770;0.266;2023-02-01T05:56:02;5.30;99.90
54082;DHT22;39986;50.770;0.266;2023-02-01T05:58:27;5.30;99.90
54082;DHT22;39986;50.770;0.266;2023-02-01T06:00:53;5.30;99.90
54082;DHT22;39986;50.770;0.266;2023-02-01T06:03:18;5.30;99.90
54082;DHT22;39986;50.770;0.266;2023-02-01T06:05:44;5.30;99.90
54082;DHT22;39986;50.770;0.266;2023-02-01T06:08:10;5.30;99.90
54082;DHT22;39986;50.770;0.266;2023-02-01T06:10:36;5.40;99.90
54082;DHT22;39986;50.770;0.266;2023-02-01T06:13:01;5.30;99.90
54082;DHT22;39986;50.770;0.266;2023-02-01T06:15:28;5.40;99.90
54082;DHT22;39986;50.770;0.266;2023-02-01T06:17:53;5.40;99.90
54082;DHT22;39986;50.770;0.266;2023-02-01T06:20:20;5.40;99.90
54082;DHT22;39986;50.770;0.266;2023-02-01T06:22:45;5.50;99.90
54082;DHT22;39986;50.770;0.266;2023-02-01T06:25:11;5.40;99.90
54082;DHT22;39986;50.770;0.266;2023-02-01T06:27:37;5.50;99.90
54082;DHT22;39986;50.770;0.266;2023-02-01T06:30:03;5.40;99.90
54082;DHT22;39986;50.770;0.266;2023-02-01T06:32:28;5.40;99.90
54082;DHT22;39986;50.770;0.266;2023-02-01T06:34:54;5.40;99.90
54082;DHT22;39986;50.770;0.266;2023-02-01T06:37:21;5.40;99.90
54082;DHT22;39986;50.770;0.266;2023-02-01T06:39:48;5.40;99.90
54082;DHT22;39986;50.770;0.266;2023-02-01T06:42:14;5.50;99.90
54082;DHT22;39986;50.770;0.266;2023-02-01T06:44:39;5.50;99.90
54082;DHT22;39986;50.770;0.266;2023-02-01T06:47:05;5.50;99.90
54082;DHT22;39986;50.770;0.266;2023-02-01T06:49:31;5.50;99.90
54082;DHT22;39986;50.770;0.266;2023-02-01T06:51:57;5.50;99.90
54082;DHT22;39986;50.770;0.266;2023-02-01T06:54:25;5.50;99.90
54082;DHT22;39986;50.770;0.266;2023-02-01T06:56:51;5.60;99.90
54082;DHT22;39986;50.770;0.266;2023-02-01T06:59:16;5.50;99.90
54082;DHT22;39986;50.770;0.266;2023-02-01T07:01:42;5.50;99.90
54082;DHT22;39986;50.770;0.266;2023-02-01T07:04:09;5.50;99.90
54082;DHT22;39986;50.770;0.266;2023-02-01T07:06:35;5.50;99.90
54082;DHT22;39986;50.770;0.266;2023-02-01T07:09:00;5.40;99.90
54082;DHT22;39986;50.770;0.266;2023-02-01T07:11:26;5.40;99.90
54082;DHT22;39986;50.770;0.266;2023-02-01T07:13:53;5.50;99.90
54082;DHT22;39986;50.770;0.266;2023-02-01T07:16:19;5.40;99.90
54082;DHT22;39986;50.770;0.266;2023-02-01T07:18:46;5.40;99.90
54082;DHT22;39986;50.770;0.266;2023-02-01T07:21:12;5.40;99.90
54082;DHT22;39986;50.770;0.266;2023-02-01T07:23:38;5.40;99.90
54082;DHT22;39986;50.770;0.266;2023-02-01T07:26:04;5.50;99.90
54082;DHT22;39986;50.770;0.266;2023-02-01T07:28:30;5.50;99.90
54082;DHT22;39986;50.770;0.266;2023-02-01T07:31:10;5.60;99.90
54082;DHT22;39986;50.770;0.266;2023-02-01T07:33:36;5.60;99.90
54082;DHT22;39986;50.770;0.266;2023-02-01T07:36:03;5.60;99.90
54082;DHT22;39986;50.770;0.266;2023-02-01T07:38:29;5.70;99.90
54082;DHT22;39986;50.770;0.266;2023-02-01T07:40:58;5.70;99.90
54082;DHT22;39986;50.770;0.266;2023-02-01T07:43:23;5.80;99.90
54082;DHT22;39986;50.770;0.266;2023-02-01T07:45:52;5.80;99.90
54082;DHT22;39986;50.770;0.266;2023-02-01T07:48:22;5.90;99.90
54082;DHT22;39986;50.770;0.266;2023-02-01T07:50:48;6.00;99.90
54082;DHT22;39986;50.770;0.266;2023-02-01T07:53:14;6.00;99.90
54082;DHT22;39986;50.770;0.266;2023-02-01T07:55:39;6.00;99.90
54082;DHT22;39986;50.770;0.266;2023-02-01T07:58:05;6.10;99.90
54082;DHT22;39986;50.770;0.266;2023-02-01T08:00:34;6.10;99.90
54082;DHT22;39986;50.770;0.266;2023-02-01T08:03:18;6.10;99.90
54082;DHT22;39986;50.770;0.266;2023-02-01T08:05:44;6.10;99.90
54082;DHT22;39986;50.770;0.266;2023-02-01T08:08:09;6.10;99.90
54082;DHT22;39986;50.770;0.266;2023-02-01T08:10:35;6.30;99.90
54082;DHT22;39986;50.770;0.266;2023-02-01T08:13:01;6.20;99.90
54082;DHT22;39986;50.770;0.266;2023-02-01T08:15:27;6.30;99.90
54082;DHT22;39986;50.770;0.266;2023-02-01T08:17:53;6.30;99.90
54082;DHT22;39986;50.770;0.266;2023-02-01T08:20:20;6.30;99.90
54082;DHT22;39986;50.770;0.266;2023-02-01T08:22:49;6.40;99.90
54082;DHT22;39986;50.770;0.266;2023-02-01T08:25:15;6.50;99.90
54082;DHT22;39986;50.770;0.266;2023-02-01T08:27:41;6.40;99.90
54082;DHT22;39986;50.770;0.266;2023-02-01T08:30:07;6.50;99.90
54082;DHT22;39986;50.770;0.266;2023-02-01T08:32:33;6.50;99.90
54082;DHT22;39986;50.770;0.266;2023-02-01T08:34:58;6.60;99.90
54082;DHT22;39986;50.770;0.266;2023-02-01T08:37:24;6.60;99.90
54082;DHT22;39986;50.770;0.266;2023-02-01T08:39:49;6.70;99.90
54082;DHT22;39986;50.770;0.266;2023-02-01T08:42:16;6.80;99.90
54082;DHT22;39986;50.770;0.266;2023-02-01T08:45:00;6.90;99.90
54082;DHT22;39986;50.770;0.266;2023-02-01T08:47:25;6.90;99.90
54082;DHT22;39986;50.770;0.266;2023-02-01T08:49:51;6.90;99.90
54082;DHT22;39986;50.770;0.266;2023-02-01T08:52:18;7.00;99.90
54082;DHT22;39986;50.770;0.266;2023-02-01T08:54:44;6.90;99.90
54082;DHT22;39986;50.770;0.266;2023-02-01T08:57:09;6.90;99.90
54082;DHT22;39986;50.770;0.266;2023-02-01T08:59:35;7.00;99.90
54082;DHT22;39986;50.770;0.266;2023-02-01T09:02:00;6.90;99.90
54082;DHT22;39986;50.770;0.266;2023-02-01T09:04:26;6.90;99.90
54082;DHT22;39986;50.770;0.266;2023-02-01T09:06:52;6.90;99.90
54082;DHT22;39986;50.770;0.266;2023-02-01T09:09:21;6.90;99.90
54082;DHT22;39986;50.770;0.266;2023-02-01T09:11:46;7.10;99.90
54082;DHT22;39986;50.770;0.266;2023-02-01T09:14:12;7.30;99.90
54082;DHT22;39986;50.770;0.266;2023-02-01T09:16:38;7.60;99.90
54082;DHT22;39986;50.770;0.266;2023-02-01T09:19:03;7.90;99.90
54082;DHT22;39986;50.770;0.266;2023-02-01T09:21:29;8.20;99.90
54082;DHT22;39986;50.770;0.266;2023-02-01T09:23:54;8.40;99.90
54082;DHT22;39986;50.770;0.266;2023-02-01T09:26:20;8.80;99.90
54082;DHT22;39986;50.770;0.266;2023-02-01T09:28:45;9.00;99.90
54082;DHT22;39986;50.770;0.266;2023-02-01T09:31:11;9.20;99.90
54082;DHT22;39986;50.770;0.266;2023-02-01T09:33:36;9.20;99.90
54082;DHT22;39986;50.770;0.266;2023-02-01T09:36:03;9.20;99.90
54082;DHT22;39986;50.770;0.266;2023-02-01T09:38:29;8.90;99.90
54082;DHT22;39986;50.770;0.266;2023-02-01T09:40:55;8.90;99.90
54082;DHT22;39986;50.770;0.266;2023-02-01T09:48:20;9.20;99.90
54082;DHT22;39986;50.770;0.266;2023-02-01T09:50:49;9.50;99.90
54082;DHT22;39986;50.770;0.266;2023-02-01T09:53:18;9.70;99.90
54082;DHT22;39986;50.770;0.266;2023-02-01T09:55:49;10.10;99.90
54082;DHT22;39986;50.770;0.266;2023-02-01T10:00:53;10.50;99.90
54082;DHT22;39986;50.770;0.266;2023-02-01T10:03:19;10.40;99.90
54082;DHT22;39986;50.770;0.266;2023-02-01T10:10:56;10.40;99.90
54082;DHT22;39986;50.770;0.266;2023-02-01T10:15:53;10.10;99.90
54082;DHT22;39986;50.770;0.266;2023-02-01T10:28:17;10.90;99.90
54082;DHT22;39986;50.770;0.266;2023-02-01T10:30:44;11.00;99.90
54082;DHT22;39986;50.770;0.266;2023-02-01T10:33:26;11.40;99.90
54082;DHT22;39986;50.770;0.266;2023-02-01T10:36:01;12.40;99.90
54082;DHT22;39986;50.770;0.266;2023-02-01T10:38:29;13.60;99.90
54082;DHT22;39986;50.770;0.266;2023-02-01T10:41:02;14.50;99.90
54082;DHT22;39986;50.770;0.266;2023-02-01T10:43:29;15.60;99.90
54082;DHT22;39986;50.770;0.266;2023-02-01T10:45:55;16.30;99.90
54082;DHT22;39986;50.770;0.266;2023-02-01T10:48:25;16.10;99.90
54082;DHT22;39986;50.770;0.266;2023-02-01T10:50:59;15.60;99.90
54082;DHT22;39986;50.770;0.266;2023-02-01T10:55:53;16.70;99.90
54082;DHT22;39986;50.770;0.266;2023-02-01T10:58:29;17.10;99.90
54082;DHT22;39986;50.770;0.266;2023-02-01T11:00:58;17.10;99.90
54082;DHT22;39986;50.770;0.266;2023-02-01T11:03:38;17.50;99.90
54082;DHT22;39986;50.770;0.266;2023-02-01T11:06:09;17.90;99.90
54082;DHT22;39986;50.770;0.266;2023-02-01T11:08:41;18.50;99.90
54082;DHT22;39986;50.770;0.266;2023-02-01T11:11:07;19.00;99.90
54082;DHT22;39986;50.770;0.266;2023-02-01T11:13:36;19.60;99.90
54082;DHT22;39986;50.770;0.266;2023-02-01T11:16:03;19.70;99.90
54082;DHT22;39986;50.770;0.266;2023-02-01T11:18:30;19.70;99.90
54082;DHT22;39986;50.770;0.266;2023-02-01T11:20:56;19.60;99.90
54082;DHT22;39986;50.770;0.266;2023-02-01T11:23:23;19.00;99.90
54082;DHT22;39986;50.770;0.266;2023-02-01T11:28:17;18.60;99.90
54082;DHT22;39986;50.770;0.266;2023-02-01T11:30:44;18.30;99.90
54082;DHT22;39986;50.770;0.266;2023-02-01T11:33:18;18.40;99.90
54082;DHT22;39986;50.770;0.266;2023-02-01T11:35:44;19.30;99.90
54082;DHT22;39986;50.770;0.266;2023-02-01T11:38:11;20.20;99.90
54082;DHT22;39986;50.770;0.266;2023-02-01T11:40:39;19.50;99.90
54082;DHT22;39986;50.770;0.266;2023-02-01T11:43:16;18.10;99.90
54082;DHT22;39986;50.770;0.266;2023-02-01T11:45:53;17.60;99.90
54082;DHT22;39986;50.770;0.266;2023-02-01T11:48:18;18.00;99.90
54082;DHT22;39986;50.770;0.266;2023-02-01T11:50:54;18.60;99.90
54082;DHT22;39986;50.770;0.266;2023-02-01T12:01:16;14.90;99.90
54082;DHT22;39986;50.770;0.266;2023-02-01T12:09:21;14.30;99.90
54082;DHT22;39986;50.770;0.266;2023-02-01T12:20:00;15.70;99.90
54082;DHT22;39986;50.770;0.266;2023-02-01T12:30:03;15.60;99.90
54082;DHT22;39986;50.770;0.266;2023-02-01T12:32:36;16.50;99.90
54082;DHT22;39986;50.770;0.266;2023-02-01T12:35:13;17.10;99.90
54082;DHT22;39986;50.770;0.266;2023-02-01T12:40:26;18.00;99.90
54082;DHT22;39986;50.770;0.266;2023-02-01T12:45:26;17.80;99.90
54082;DHT22;39986;50.770;0.266;2023-02-01T12:47:57;18.00;99.90
54082;DHT22;39986;50.770;0.266;2023-02-01T12:50:28;17.40;99.90
54082;DHT22;39986;50.770;0.266;2023-02-01T12:52:58;17.10;99.90
54082;DHT22;39986;50.770;0.266;2023-02-01T12:55:36;17.90;99.90
54082;DHT22;39986;50.770;0.266;2023-02-01T12:58:06;18.40;99.90
54082;DHT22;39986;50.770;0.266;2023-02-01T13:00:37;17.70;99.90
54082;DHT22;39986;50.770;0.266;2023-02-01T13:03:10;17.00;99.90
54082;DHT22;39986;50.770;0.266;2023-02-01T13:05:44;16.20;99.90
54082;DHT22;39986;50.770;0.266;2023-02-01T13:08:14;15.10;99.90
54082;DHT22;39986;50.770;0.266;2023-02-01T13:10:48;14.30;99.90
54082;DHT22;39986;50.770;0.266;2023-02-01T13:15:47;15.00;99.90
54082;DHT22;39986;50.770;0.266;2023-02-01T13:18:14;15.40;99.90
54082;DHT22;39986;50.770;0.266;2023-02-01T13:23:20;18.20;99.90
54082;DHT22;39986;50.770;0.266;2023-02-01T13:25:50;18.80;99.90
54082;DHT22;39986;50.770;0.266;2023-02-01T13:31:03;21.40;99.90
54082;DHT22;39986;50.770;0.266;2023-02-01T13:33:44;22.90;99.90
54082;DHT22;39986;50.770;0.266;2023-02-01T13:41:33;23.60;99.60
54082;DHT22;39986;50.770;0.266;2023-02-01T13:44:03;23.50;98.90
54082;DHT22;39986;50.770;0.266;2023-02-01T13:46:29;22.00;99.90
54082;DHT22;39986;50.770;0.266;2023-02-01T13:51:50;17.60;99.90
54082;DHT22;39986;50.770;0.266;2023-02-01T13:54:27;16.20;99.90
54082;DHT22;39986;50.770;0.266;2023-02-01T13:56:53;15.50;99.90
54082;DHT22;39986;50.770;0.266;2023-02-01T14:04:48;14.00;99.90
54082;DHT22;39986;50.770;0.266;2023-02-01T14:07:21;13.60;99.90
54082;DHT22;39986;50.770;0.266;2023-02-01T14:09:47;13.20;99.90
54082;DHT22;39986;50.770;0.266;2023-02-01T14:15:17;12.60;99.90
54082;DHT22;39986;50.770;0.266;2023-02-01T14:17:43;12.30;99.90
54082;DHT22;39986;50.770;0.266;2023-02-01T14:23:01;12.10;99.90
54082;DHT22;39986;50.770;0.266;2023-02-01T14:25:31;12.00;99.90
54082;DHT22;39986;50.770;0.266;2023-02-01T14:27:57;11.80;99.90
54082;DHT22;39986;50.770;0.266;2023-02-01T14:30:23;11.80;99.90
54082;DHT22;39986;50.770;0.266;2023-02-01T14:32:48;11.60;99.90
54082;DHT22;39986;50.770;0.266;2023-02-01T14:35:18;11.50;99.90
54082;DHT22;39986;50.770;0.266;2023-02-01T14:37:45;11.50;99.90
54082;DHT22;39986;50.770;0.266;2023-02-01T14:42:53;11.30;99.90
54082;DHT22;39986;50.770;0.266;2023-02-01T14:55:31;11.40;99.90
54082;DHT22;39986;50.770;0.266;2023-02-01T14:57:59;11.30;99.90
54082;DHT22;39986;50.770;0.266;2023-02-01T15:00:27;11.50;99.90
54082;DHT22;39986;50.770;0.266;2023-02-01T15:02:54;11.50;99.90
54082;DHT22;39986;50.770;0.266;2023-02-01T15:05:28;11.60;99.90
54082;DHT22;39986;50.770;0.266;2023-02-01T15:07:56;11.60;99.90
54082;DHT22;39986;50.770;0.266;2023-02-01T15:10:22;11.80;99.90
54082;DHT22;39986;50.770;0.266;2023-02-01T15:12:49;11.90;99.90
54082;DHT22;39986;50.770;0.266;2023-02-01T15:15:20;11.90;99.90
54082;DHT22;39986;50.770;0.266;2023-02-01T15:17:54;11.90;99.90
54082;DHT22;39986;50.770;0.266;2023-02-01T15:20:24;12.10;99.90
54082;DHT22;39986;50.770;0.266;2023-02-01T15:23:00;12.20;99.90
54082;DHT22;39986;50.770;0.266;2023-02-01T15:25:30;12.10;99.90
54082;DHT22;39986;50.770;0.266;2023-02-01T15:27:56;11.90;99.90
54082;DHT22;39986;50.770;0.266;2023-02-01T15:30:26;11.70;99.90
54082;DHT22;39986;50.770;0.266;2023-02-01T15:33:02;11.50;99.90
54082;DHT22;39986;50.770;0.266;2023-02-01T15:41:05;11.00;99.90
54082;DHT22;39986;50.770;0.266;2023-02-01T15:43:32;11.00;99.90
54082;DHT22;39986;50.770;0.266;2023-02-01T15:45:58;10.90;99.90
54082;DHT22;39986;50.770;0.266;2023-02-01T15:48:25;11.00;99.90
54082;DHT22;39986;50.770;0.266;2023-02-01T15:50:52;11.00;99.90
54082;DHT22;39986;50.770;0.266;2023-02-01T15:53:19;11.00;99.90
54082;DHT22;39986;50.770;0.266;2023-02-01T15:55:46;10.90;99.90
54082;DHT22;39986;50.770;0.266;2023-02-01T15:58:18;10.90;99.90
54082;DHT22;39986;50.770;0.266;2023-02-01T16:00:45;10.80;99.90
54082;DHT22;39986;50.770;0.266;2023-02-01T16:05:57;10.70;99.90
54082;DHT22;39986;50.770;0.266;2023-02-01T16:08:24;10.60;99.90
54082;DHT22;39986;50.770;0.266;2023-02-01T16:10:51;10.50;99.90
54082;DHT22;39986;50.770;0.266;2023-02-01T16:13:18;10.40;99.90
54082;DHT22;39986;50.770;0.266;2023-02-01T16:15:44;10.30;99.90
54082;DHT22;39986;50.770;0.266;2023-02-01T16:18:10;10.30;99.90
54082;DHT22;39986;50.770;0.266;2023-02-01T16:20:36;10.30;99.90
54082;DHT22;39986;50.770;0.266;2023-02-01T16:23:02;10.20;99.90
54082;DHT22;39986;50.770;0.266;2023-02-01T16:25:28;10.10;99.90
54082;DHT22;39986;50.770;0.266;2023-02-01T16:27:54;10.00;99.90
54082;DHT22;39986;50.770;0.266;2023-02-01T16:30:19;10.00;99.90
54082;DHT22;39986;50.770;0.266;2023-02-01T16:32:51;9.90;99.90
54082;DHT22;39986;50.770;0.266;2023-02-01T16:35:22;9.90;99.90
54082;DHT22;39986;50.770;0.266;2023-02-01T16:37:48;9.90;99.90
54082;DHT22;39986;50.770;0.266;2023-02-01T16:40:14;9.80;99.90
54082;DHT22;39986;50.770;0.266;2023-02-01T16:42:40;9.80;99.90
54082;DHT22;39986;50.770;0.266;2023-02-01T16:45:06;9.80;99.90
54082;DHT22;39986;50.770;0.266;2023-02-01T16:47:32;9.70;99.90
54082;DHT22;39986;50.770;0.266;2023-02-01T16:49:59;9.70;99.90
54082;DHT22;39986;50.770;0.266;2023-02-01T16:52:25;9.70;99.90
54082;DHT22;39986;50.770;0.266;2023-02-01T16:54:51;9.70;99.90
54082;DHT22;39986;50.770;0.266;2023-02-01T16:57:18;9.70;99.90
54082;DHT22;39986;50.770;0.266;2023-02-01T16:59:44;9.70;99.90
54082;DHT22;39986;50.770;0.266;2023-02-01T17:02:14;9.70;99.90
54082;DHT22;39986;50.770;0.266;2023-02-01T17:04:39;9.70;99.90
54082;DHT22;39986;50.770;0.266;2023-02-01T17:07:05;9.70;99.90
54082;DHT22;39986;50.770;0.266;2023-02-01T17:09:36;9.70;99.90
54082;DHT22;39986;50.770;0.266;2023-02-01T17:12:02;9.70;99.90
54082;DHT22;39986;50.770;0.266;2023-02-01T17:14:29;9.70;99.90
54082;DHT22;39986;50.770;0.266;2023-02-01T17:16:55;9.60;99.90
54082;DHT22;39986;50.770;0.266;2023-02-01T17:19:21;9.70;99.90
54082;DHT22;39986;50.770;0.266;2023-02-01T17:21:51;9.70;99.90
54082;DHT22;39986;50.770;0.266;2023-02-01T17:24:20;9.70;99.90
54082;DHT22;39986;50.770;0.266;2023-02-01T17:26:46;9.70;99.90
54082;DHT22;39986;50.770;0.266;2023-02-01T17:29:11;9.70;99.90
54082;DHT22;39986;50.770;0.266;2023-02-01T17:31:41;9.70;99.90
54082;DHT22;39986;50.770;0.266;2023-02-01T17:34:08;9.50;99.90
54082;DHT22;39986;50.770;0.266;2023-02-01T17:36:34;9.60;99.90
54082;DHT22;39986;50.770;0.266;2023-02-01T17:39:01;9.70;99.90
54082;DHT22;39986;50.770;0.266;2023-02-01T17:41:26;9.60;99.90
54082;DHT22;39986;50.770;0.266;2023-02-01T17:43:52;9.60;99.90
54082;DHT22;39986;50.770;0.266;2023-02-01T17:46:18;9.60;99.90
54082;DHT22;39986;50.770;0.266;2023-02-01T17:48:45;9.60;99.90
54082;DHT22;39986;50.770;0.266;2023-02-01T17:51:18;9.50;99.90
54082;DHT22;39986;50.770;0.266;2023-02-01T17:53:44;9.50;99.90
54082;DHT22;39986;50.770;0.266;2023-02-01T17:56:12;9.50;99.90
54082;DHT22;39986;50.770;0.266;2023-02-01T17:58:38;9.60;99.90
54082;DHT22;39986;50.770;0.266;2023-02-01T18:01:04;9.40;99.90
54082;DHT22;39986;50.770;0.266;2023-02-01T18:03:29;9.40;99.90
54082;DHT22;39986;50.770;0.266;2023-02-01T18:05:57;9.40;99.90
54082;DHT22;39986;50.770;0.266;2023-02-01T18:08:24;9.50;99.90
54082;DHT22;39986;50.770;0.266;2023-02-01T18:10:54;9.50;99.90
54082;DHT22;39986;50.770;0.266;2023-02-01T18:13:20;9.50;99.90